Terminal Aerodrome Forecast
Issued by NWS

Home | Current Version | Previous Version | Text Only | Print | Product List | Glossary On
Versions: 1 2 3 4 5 6 7 8 9 10 11 12 13
147
FTUS45 KRIW 031120
TAFBPI
TAF
KBPI 031120Z 0312/0412 VRB05KT P6SM SKC
     FM032100 28008KT P6SM SCT070
     FM040400 VRB05KT P6SM SKC=

USA.gov is the U.S. government's official web portal to all federal, state and local government web resources and services.